Decherd, Tennessee
Current Conditions -  °F | °C
As of 1:15 PM on Tuesday 21 Oct 2014 (Local Time) from KBGF Reporting Station
Clear Clear  
Wind Chill: 66°   Ceiling: Unl
Heat Index: 66°   Visibility: 10mi
Dew Point: 46°   Wind: 8mph
Humidity: 49%   Direction: 350°N
Pressure: 30.04"   Gusts: NA
Location:  35.21°N, 86.08°W
Report Text: KBGF 211815Z AUTO 35007KT 310V020 10SM CLR 19/08 A3004 RMK
Loading
Personal Weather Stations






























Interactive Weather Map
Tropical Storm Tracking
New forecast layout! Learn more

10-Day Weather Forecast

Advertisements
Track Severe Weather on mobile